Time;durP1;ratioP1;P1;durP2;ratioP2;P2;SDS_P1;SDS_P2;PMS_P1;PMS_P2;Temp;Humidity;BMP_temperature;BMP_pressure;BME280_temperature;BME280_humidity;BME280_pressure;Samples;Min_cycle;Max_cycle;Signal;HPM_P1;HPM_P2
2024/01/28 00:02:01;;;;;;;9.70;6.22;;;;;;;;;;5046360;28;20587;-84
2024/01/28 00:04:27;;;;;;;10.73;5.88;;;;;;;;;;5039670;28;20053;-84
2024/01/28 00:06:54;;;;;;;10.27;5.65;;;;;;;;;;5056035;28;20081;-84
2024/01/28 00:09:21;;;;;;;11.18;6.07;;;;;;;;;;5056288;28;20600;-84
2024/01/28 00:11:47;;;;;;;11.30;5.30;;;;;;;;;;5056261;28;20056;-84
2024/01/28 00:14:14;;;;;;;10.50;6.30;;;;;;;;;;5040252;28;20083;-85
2024/01/28 00:16:41;;;;;;;11.75;6.57;;;;;;;;;;5057051;28;20057;-84
2024/01/28 00:19:08;;;;;;;11.20;6.40;;;;;;;;;;5057058;28;20056;-84
2024/01/28 00:21:35;;;;;;;12.88;5.85;;;;;;;;;;5056654;28;20052;-84
2024/01/28 00:24:04;;;;;;;15.57;6.18;;;;;;;;;;5040196;28;20080;-83
2024/01/28 00:26:35;;;;;;;15.52;5.93;;;;;;;;;;5039955;28;20057;-83
2024/01/28 00:29:02;;;;;;;9.43;6.10;;;;;;;;;;5040046;28;20119;-84
2024/01/28 00:31:28;;;;;;;11.02;6.70;;;;;;;;;;5058219;28;20469;-84
2024/01/28 00:33:55;;;;;;;13.48;8.15;;;;;;;;;;5042478;28;20056;-84
2024/01/28 00:36:21;;;;;;;12.32;7.18;;;;;;;;;;5058372;28;20140;-84
2024/01/28 00:38:48;;;;;;;13.27;7.30;;;;;;;;;;5041250;28;20055;-84
2024/01/28 00:41:22;;;;;;;15.48;7.60;;;;;;;;;;5042047;28;20135;-84
2024/01/28 00:43:49;;;;;;;11.57;6.88;;;;;;;;;;5058112;28;20049;-84
2024/01/28 00:46:16;;;;;;;18.05;7.75;;;;;;;;;;5040308;28;20041;-84
2024/01/28 00:48:42;;;;;;;10.40;6.50;;;;;;;;;;5034289;28;20049;-84
2024/01/28 00:51:10;;;;;;;12.63;7.63;;;;;;;;;;5055855;28;20053;-84
2024/01/28 00:53:36;;;;;;;12.02;7.32;;;;;;;;;;5037646;28;20053;-84
2024/01/28 00:56:03;;;;;;;13.10;7.80;;;;;;;;;;5054110;28;20060;-88
2024/01/28 00:58:30;;;;;;;16.00;7.97;;;;;;;;;;5052027;28;20080;-89
2024/01/28 01:00:56;;;;;;;16.40;9.30;;;;;;;;;;5051399;28;20045;-87
2024/01/28 01:03:23;;;;;;;18.33;10.00;;;;;;;;;;5035298;28;20414;-87
2024/01/28 01:05:50;;;;;;;19.73;10.02;;;;;;;;;;5032566;28;20467;-87
2024/01/28 01:08:17;;;;;;;18.42;8.98;;;;;;;;;;5027003;28;20516;-88
2024/01/28 01:10:44;;;;;;;19.45;8.23;;;;;;;;;;5052780;28;20076;-87
2024/01/28 01:13:11;;;;;;;15.10;7.53;;;;;;;;;;5052491;28;20538;-87
2024/01/28 01:15:38;;;;;;;14.70;7.93;;;;;;;;;;5035810;28;20099;-89
2024/01/28 01:18:04;;;;;;;11.90;7.28;;;;;;;;;;5051573;28;20499;-88
2024/01/28 01:20:32;;;;;;;12.43;6.80;;;;;;;;;;5051747;28;20048;-88
2024/01/28 01:22:59;;;;;;;13.18;7.38;;;;;;;;;;5035885;28;20052;-88
2024/01/28 01:25:26;;;;;;;12.05;6.88;;;;;;;;;;5052142;28;20080;-88
2024/01/28 01:27:53;;;;;;;14.75;8.20;;;;;;;;;;5049528;28;20084;-89
2024/01/28 01:30:20;;;;;;;14.05;8.50;;;;;;;;;;5035413;28;20044;-88
2024/01/28 01:32:47;;;;;;;14.95;7.70;;;;;;;;;;5035368;28;20049;-89
2024/01/28 01:35:14;;;;;;;16.25;7.68;;;;;;;;;;5035205;28;20075;-91
2024/01/28 01:37:41;;;;;;;12.52;7.10;;;;;;;;;;5029866;28;20564;-87
2024/01/28 01:40:08;;;;;;;14.90;7.60;;;;;;;;;;5035516;28;20487;-86
2024/01/28 01:42:34;;;;;;;12.48;7.53;;;;;;;;;;5052636;28;20076;-85
2024/01/28 01:45:01;;;;;;;11.60;7.40;;;;;;;;;;5052049;28;20049;-86
2024/01/28 01:47:28;;;;;;;13.98;6.95;;;;;;;;;;5051464;28;20045;-85
2024/01/28 01:49:55;;;;;;;15.50;6.82;;;;;;;;;;5051863;28;20495;-83
2024/01/28 01:52:22;;;;;;;11.50;6.53;;;;;;;;;;5035665;28;20122;-84
2024/01/28 01:54:49;;;;;;;13.23;7.40;;;;;;;;;;5051811;28;20562;-84
2024/01/28 01:57:16;;;;;;;14.27;7.43;;;;;;;;;;5035535;28;20052;-84
2024/01/28 01:59:44;;;;;;;11.38;6.85;;;;;;;;;;5035082;28;20143;-85
2024/01/28 02:02:10;;;;;;;16.52;7.18;;;;;;;;;;5051403;28;20049;-85
2024/01/28 02:04:37;;;;;;;12.27;7.15;;;;;;;;;;5035045;28;20087;-85
2024/01/28 02:07:04;;;;;;;12.23;6.82;;;;;;;;;;5035312;28;20439;-86
2024/01/28 02:09:31;;;;;;;12.18;7.72;;;;;;;;;;5035209;28;20131;-85
2024/01/28 02:11:58;;;;;;;13.38;7.78;;;;;;;;;;5050529;28;20053;-85
2024/01/28 02:14:27;;;;;;;10.07;6.57;;;;;;;;;;5050867;28;20053;-85
2024/01/28 02:16:53;;;;;;;14.10;6.97;;;;;;;;;;5032136;28;21555;-85
2024/01/28 02:19:20;;;;;;;11.05;6.35;;;;;;;;;;5032875;28;20084;-86
2024/01/28 02:21:47;;;;;;;15.07;8.45;;;;;;;;;;5050553;28;20057;-85
2024/01/28 02:24:13;;;;;;;11.15;7.25;;;;;;;;;;5050553;28;20410;-85
2024/01/28 02:26:40;;;;;;;11.65;6.50;;;;;;;;;;5050047;28;20480;-86
2024/01/28 02:29:07;;;;;;;16.98;7.90;;;;;;;;;;5058102;28;20049;-87
2024/01/28 02:31:33;;;;;;;16.20;7.45;;;;;;;;;;5063669;28;20135;-86
2024/01/28 02:34:00;;;;;;;16.42;8.30;;;;;;;;;;5034284;28;20522;-85
2024/01/28 02:36:28;;;;;;;20.33;9.38;;;;;;;;;;5040156;28;20144;-85
2024/01/28 02:38:54;;;;;;;14.85;8.20;;;;;;;;;;5040726;28;20049;-85
2024/01/28 02:41:21;;;;;;;13.55;7.60;;;;;;;;;;5029686;28;20469;-85
2024/01/28 02:43:48;;;;;;;20.88;10.80;;;;;;;;;;5037116;28;20099;-85
2024/01/28 02:46:14;;;;;;;17.13;8.63;;;;;;;;;;5038543;28;20053;-84
2024/01/28 02:48:41;;;;;;;15.02;7.28;;;;;;;;;;5037727;28;20060;-84
2024/01/28 02:51:08;;;;;;;10.98;6.10;;;;;;;;;;5054485;28;20124;-84
2024/01/28 02:53:34;;;;;;;12.75;6.10;;;;;;;;;;5054545;28;20052;-85
2024/01/28 02:56:01;;;;;;;14.73;6.10;;;;;;;;;;5037657;28;20053;-84
2024/01/28 02:58:28;;;;;;;8.13;5.35;;;;;;;;;;5054061;28;20088;-85
2024/01/28 03:00:54;;;;;;;11.02;6.15;;;;;;;;;;5033880;28;20515;-86
2024/01/28 03:03:21;;;;;;;10.07;6.10;;;;;;;;;;5034864;28;20539;-85
2024/01/28 03:05:48;;;;;;;10.50;6.40;;;;;;;;;;5055058;28;20075;-84
2024/01/28 03:08:14;;;;;;;11.82;5.53;;;;;;;;;;5055922;28;20098;-82
2024/01/28 03:10:41;;;;;;;8.88;6.18;;;;;;;;;;5054989;28;20550;-83
2024/01/28 03:13:07;;;;;;;10.63;5.75;;;;;;;;;;5054471;28;20129;-84
2024/01/28 03:15:34;;;;;;;9.13;5.70;;;;;;;;;;5052901;28;20506;-85
2024/01/28 03:18:01;;;;;;;9.98;5.80;;;;;;;;;;5052618;28;20060;-85
2024/01/28 03:20:28;;;;;;;9.85;6.30;;;;;;;;;;5053521;28;20095;-85
2024/01/28 03:22:54;;;;;;;9.60;5.63;;;;;;;;;;5029878;28;20418;-86
2024/01/28 03:25:21;;;;;;;10.80;5.97;;;;;;;;;;5055305;28;20099;-86
2024/01/28 03:27:48;;;;;;;10.18;5.80;;;;;;;;;;5057250;28;20140;-85
2024/01/28 03:30:15;;;;;;;7.63;5.93;;;;;;;;;;5057075;28;20103;-85
2024/01/28 03:32:42;;;;;;;12.40;5.75;;;;;;;;;;5041048;28;20053;-85
2024/01/28 03:35:10;;;;;;;12.52;6.45;;;;;;;;;;5040004;28;20060;-86
2024/01/28 03:37:37;;;;;;;13.23;6.53;;;;;;;;;;5038400;28;20049;-86
2024/01/28 03:40:05;;;;;;;9.00;5.65;;;;;;;;;;5053674;28;20128;-89
2024/01/28 03:42:32;;;;;;;9.25;5.38;;;;;;;;;;5041891;28;20041;-83
2024/01/28 03:44:58;;;;;;;13.02;5.53;;;;;;;;;;5057115;28;20049;-88
2024/01/28 03:47:25;;;;;;;9.63;5.55;;;;;;;;;;5035688;28;20049;-85
2024/01/28 03:49:52;;;;;;;13.07;6.20;;;;;;;;;;5058922;28;20071;-85
2024/01/28 03:52:18;;;;;;;10.40;5.78;;;;;;;;;;5041151;28;20098;-85
2024/01/28 03:54:45;;;;;;;12.50;6.00;;;;;;;;;;5040058;28;20400;-85
2024/01/28 03:57:12;;;;;;;9.93;4.88;;;;;;;;;;5056858;28;20633;-85
2024/01/28 03:59:39;;;;;;;10.13;5.60;;;;;;;;;;5040292;28;20083;-85
2024/01/28 04:02:07;;;;;;;7.45;5.63;;;;;;;;;;5039791;28;20481;-83
2024/01/28 04:04:34;;;;;;;9.55;5.40;;;;;;;;;;5047417;28;20048;-85
2024/01/28 04:07:01;;;;;;;9.20;5.68;;;;;;;;;;5039059;28;20045;-84
2024/01/28 04:09:27;;;;;;;11.05;5.22;;;;;;;;;;5040020;28;20056;-85
2024/01/28 04:11:54;;;;;;;10.18;5.22;;;;;;;;;;5057021;28;20037;-84
2024/01/28 04:14:21;;;;;;;10.10;5.78;;;;;;;;;;5053041;28;20129;-86
2024/01/28 04:16:48;;;;;;;8.90;5.75;;;;;;;;;;5036112;28;20542;-86
2024/01/28 04:19:14;;;;;;;9.07;5.97;;;;;;;;;;5052687;28;20068;-86
2024/01/28 04:21:41;;;;;;;9.93;5.40;;;;;;;;;;5052753;28;20558;-85
2024/01/28 04:24:08;;;;;;;8.93;5.07;;;;;;;;;;5053771;28;20045;-87
2024/01/28 04:26:34;;;;;;;11.95;5.68;;;;;;;;;;5054495;28;20099;-86
2024/01/28 04:29:01;;;;;;;10.60;5.78;;;;;;;;;;5045697;28;20413;-88
2024/01/28 04:31:29;;;;;;;13.93;6.75;;;;;;;;;;5058521;28;20088;-88
2024/01/28 04:33:57;;;;;;;16.63;7.10;;;;;;;;;;5052855;28;20103;-88
2024/01/28 04:36:27;;;;;;;17.15;7.47;;;;;;;;;;5036553;28;20063;-88
2024/01/28 04:38:54;;;;;;;16.77;7.18;;;;;;;;;;5047768;28;20045;-87
2024/01/28 04:41:20;;;;;;;16.10;6.82;;;;;;;;;;5032855;28;20134;-87
2024/01/28 04:43:47;;;;;;;10.32;5.57;;;;;;;;;;5032229;28;20081;-87
2024/01/28 04:46:17;;;;;;;13.40;6.75;;;;;;;;;;5031093;28;20530;-87
2024/01/28 04:48:43;;;;;;;12.02;5.95;;;;;;;;;;5032937;28;20116;-87
2024/01/28 04:51:10;;;;;;;14.00;5.95;;;;;;;;;;5050001;28;20053;-87
2024/01/28 04:53:38;;;;;;;11.80;6.00;;;;;;;;;;5032179;28;20059;-86
2024/01/28 04:56:05;;;;;;;10.57;5.28;;;;;;;;;;5055639;28;20048;-88
2024/01/28 04:58:31;;;;;;;8.88;5.32;;;;;;;;;;5053676;28;20081;-87
2024/01/28 05:00:58;;;;;;;14.63;6.32;;;;;;;;;;5053616;28;20118;-86
2024/01/28 05:03:25;;;;;;;11.68;5.55;;;;;;;;;;5037152;28;20049;-86
2024/01/28 05:05:52;;;;;;;9.75;5.13;;;;;;;;;;5053660;28;20059;-88
2024/01/28 05:08:19;;;;;;;9.77;5.93;;;;;;;;;;5053932;28;20088;-86
2024/01/28 05:10:46;;;;;;;8.13;5.07;;;;;;;;;;5035317;28;20079;-86
2024/01/28 05:13:12;;;;;;;11.75;5.60;;;;;;;;;;5034881;28;20068;-86
2024/01/28 05:15:39;;;;;;;7.53;4.80;;;;;;;;;;5055176;28;20552;-85
2024/01/28 05:18:06;;;;;;;10.70;5.03;;;;;;;;;;5069004;28;20486;-85
2024/01/28 05:20:32;;;;;;;8.23;4.63;;;;;;;;;;5039372;28;20053;-85
2024/01/28 05:22:59;;;;;;;11.30;5.53;;;;;;;;;;5082944;28;20040;-86
2024/01/28 05:25:26;;;;;;;8.60;5.25;;;;;;;;;;5052674;28;20064;-85
2024/01/28 05:27:54;;;;;;;7.10;4.75;;;;;;;;;;5057200;28;20053;-83
2024/01/28 05:30:20;;;;;;;8.15;5.13;;;;;;;;;;5057308;28;20095;-82
2024/01/28 05:32:48;;;;;;;9.02;4.97;;;;;;;;;;5040499;28;20048;-83
2024/01/28 05:35:14;;;;;;;13.02;5.63;;;;;;;;;;5060740;28;20052;-84
2024/01/28 05:37:41;;;;;;;9.85;5.57;;;;;;;;;;5067850;28;20056;-84
2024/01/28 05:40:10;;;;;;;10.82;5.13;;;;;;;;;;5056249;28;20056;-83
2024/01/28 05:42:37;;;;;;;8.73;5.15;;;;;;;;;;5040370;28;20059;-84
2024/01/28 05:45:04;;;;;;;15.43;5.53;;;;;;;;;;5040259;28;20053;-83
2024/01/28 05:47:31;;;;;;;10.68;5.97;;;;;;;;;;5039097;28;20049;-83
2024/01/28 05:49:57;;;;;;;9.32;5.47;;;;;;;;;;5056635;28;20053;-83
2024/01/28 05:52:24;;;;;;;10.07;5.93;;;;;;;;;;5047848;28;20053;-83
2024/01/28 05:54:51;;;;;;;9.15;5.00;;;;;;;;;;5056294;28;20187;-84
2024/01/28 05:57:18;;;;;;;10.05;6.10;;;;;;;;;;5056296;28;20049;-84
2024/01/28 05:59:45;;;;;;;10.73;5.80;;;;;;;;;;5055549;28;20077;-83
2024/01/28 06:02:11;;;;;;;8.95;5.18;;;;;;;;;;5038348;28;20049;-84
2024/01/28 06:04:38;;;;;;;11.35;5.22;;;;;;;;;;5069804;28;20049;-84
2024/01/28 06:07:05;;;;;;;8.20;5.35;;;;;;;;;;5040918;28;20049;-84
2024/01/28 06:09:31;;;;;;;10.43;5.65;;;;;;;;;;5055204;28;20049;-84
2024/01/28 06:11:58;;;;;;;12.23;5.05;;;;;;;;;;5057004;28;20576;-84
2024/01/28 06:14:25;;;;;;;11.45;5.43;;;;;;;;;;5055625;28;20053;-84
2024/01/28 06:16:52;;;;;;;7.85;4.88;;;;;;;;;;5069567;28;20131;-83
2024/01/28 06:19:19;;;;;;;7.05;4.20;;;;;;;;;;5057425;28;20052;-83
2024/01/28 06:21:45;;;;;;;7.25;5.60;;;;;;;;;;5055782;28;20044;-83
2024/01/28 06:24:12;;;;;;;7.47;4.85;;;;;;;;;;5039759;28;20101;-83
2024/01/28 06:26:39;;;;;;;8.88;5.28;;;;;;;;;;5039145;28;20044;-83
2024/01/28 06:29:06;;;;;;;9.05;4.95;;;;;;;;;;5039194;28;20099;-83
2024/01/28 06:31:33;;;;;;;8.05;5.15;;;;;;;;;;5052394;28;20589;-82
2024/01/28 06:33:59;;;;;;;11.10;5.63;;;;;;;;;;5051510;28;20053;-83
2024/01/28 06:36:26;;;;;;;10.07;4.97;;;;;;;;;;5039964;28;20061;-83
2024/01/28 06:38:54;;;;;;;12.23;5.30;;;;;;;;;;5039412;28;20053;-83
2024/01/28 06:41:21;;;;;;;8.93;4.75;;;;;;;;;;5055796;28;20053;-83
2024/01/28 06:43:48;;;;;;;11.40;5.45;;;;;;;;;;5054989;28;20049;-83
2024/01/28 06:46:16;;;;;;;10.85;5.90;;;;;;;;;;5055874;28;20052;-83
2024/01/28 06:48:43;;;;;;;9.73;5.40;;;;;;;;;;5037145;28;20049;-86
2024/01/28 06:51:10;;;;;;;10.98;5.43;;;;;;;;;;5035946;28;20149;-88
2024/01/28 06:53:36;;;;;;;10.75;5.28;;;;;;;;;;5049913;28;20091;-87
2024/01/28 06:56:03;;;;;;;8.10;5.75;;;;;;;;;;5033660;28;20136;-88
2024/01/28 06:58:30;;;;;;;10.45;5.20;;;;;;;;;;5034127;28;20511;-85
2024/01/28 07:00:57;;;;;;;10.82;5.40;;;;;;;;;;5034689;28;20056;-87
2024/01/28 07:03:24;;;;;;;11.77;6.45;;;;;;;;;;5061576;28;20051;-82
2024/01/28 07:05:51;;;;;;;10.18;4.90;;;;;;;;;;5070862;28;20094;-81
2024/01/28 07:08:18;;;;;;;11.00;5.43;;;;;;;;;;5070744;28;20060;-82
2024/01/28 07:10:44;;;;;;;8.70;5.60;;;;;;;;;;5047107;28;20276;-83
2024/01/28 07:13:11;;;;;;;9.35;6.03;;;;;;;;;;5040806;28;20079;-80
2024/01/28 07:15:37;;;;;;;9.18;6.00;;;;;;;;;;5054739;28;20084;-80
2024/01/28 07:18:05;;;;;;;12.48;5.68;;;;;;;;;;5055680;28;20127;-79
2024/01/28 07:20:31;;;;;;;13.02;5.72;;;;;;;;;;5034999;28;20057;-80
2024/01/28 07:22:58;;;;;;;9.77;5.43;;;;;;;;;;5066016;28;20079;-78
2024/01/28 07:25:25;;;;;;;11.38;5.50;;;;;;;;;;5055675;28;20094;-80
2024/01/28 07:27:52;;;;;;;8.45;5.82;;;;;;;;;;5037262;28;20106;-78
2024/01/28 07:30:19;;;;;;;10.20;6.38;;;;;;;;;;5049671;28;20056;-78
2024/01/28 07:32:46;;;;;;;12.52;7.90;;;;;;;;;;5054137;28;20056;-80
2024/01/28 07:35:13;;;;;;;15.02;8.45;;;;;;;;;;5051449;28;20049;-78
2024/01/28 07:37:39;;;;;;;17.00;8.73;;;;;;;;;;5050634;28;20084;-78
2024/01/28 07:40:06;;;;;;;11.85;6.63;;;;;;;;;;5051294;28;20103;-79
2024/01/28 07:42:33;;;;;;;13.30;5.93;;;;;;;;;;5049477;28;20492;-79
2024/01/28 07:45:00;;;;;;;9.73;5.85;;;;;;;;;;5050301;28;20049;-78
2024/01/28 07:47:26;;;;;;;9.75;5.80;;;;;;;;;;5034256;28;20045;-78
2024/01/28 07:49:53;;;;;;;9.60;6.43;;;;;;;;;;5034280;28;20055;-78
2024/01/28 07:52:20;;;;;;;17.45;6.72;;;;;;;;;;5051117;28;20075;-78
2024/01/28 07:54:46;;;;;;;10.25;6.85;;;;;;;;;;5051112;28;20057;-78
2024/01/28 07:57:13;;;;;;;12.05;6.45;;;;;;;;;;5034898;28;20577;-78
2024/01/28 07:59:40;;;;;;;9.90;6.15;;;;;;;;;;5052436;28;20056;-80
2024/01/28 08:02:06;;;;;;;11.60;6.63;;;;;;;;;;5051474;28;20076;-78
2024/01/28 08:04:33;;;;;;;11.43;6.85;;;;;;;;;;5026482;28;20057;-78
2024/01/28 08:07:00;;;;;;;9.50;5.90;;;;;;;;;;5033013;28;20099;-78
2024/01/28 08:09:31;;;;;;;10.13;6.57;;;;;;;;;;5069826;28;20109;-78
2024/01/28 08:11:58;;;;;;;12.57;6.80;;;;;;;;;;5061079;28;20049;-78
2024/01/28 08:14:27;;;;;;;9.90;5.60;;;;;;;;;;5075151;28;20049;-79
2024/01/28 08:16:54;;;;;;;12.05;6.40;;;;;;;;;;5074501;28;20048;-79
2024/01/28 08:19:21;;;;;;;10.18;6.53;;;;;;;;;;5057114;28;20052;-79
2024/01/28 08:21:48;;;;;;;9.27;6.10;;;;;;;;;;5047248;28;20053;-78
2024/01/28 08:24:15;;;;;;;10.32;5.88;;;;;;;;;;5037908;28;20069;-78
2024/01/28 08:26:41;;;;;;;10.48;6.07;;;;;;;;;;5071198;28;20168;-75
2024/01/28 08:29:08;;;;;;;9.77;5.72;;;;;;;;;;5066791;28;20056;-79
2024/01/28 08:31:35;;;;;;;10.95;6.22;;;;;;;;;;5035741;28;20106;-75
2024/01/28 08:34:01;;;;;;;10.23;6.30;;;;;;;;;;5034872;28;20084;-76
2024/01/28 08:36:28;;;;;;;11.63;6.38;;;;;;;;;;5055327;28;20053;-79
2024/01/28 08:38:55;;;;;;;11.18;6.90;;;;;;;;;;5037429;28;20056;-79
2024/01/28 08:41:21;;;;;;;11.00;6.80;;;;;;;;;;5054484;28;20449;-80
2024/01/28 08:43:48;;;;;;;11.82;6.60;;;;;;;;;;5030978;28;20041;-82
2024/01/28 08:46:16;;;;;;;12.10;6.68;;;;;;;;;;5035805;28;20045;-78
2024/01/28 08:48:43;;;;;;;11.00;6.15;;;;;;;;;;5052755;28;20131;-79
2024/01/28 08:51:09;;;;;;;9.38;6.82;;;;;;;;;;5055694;28;20071;-78
2024/01/28 08:53:36;;;;;;;12.15;7.38;;;;;;;;;;5055811;28;20048;-79
2024/01/28 08:56:03;;;;;;;12.07;7.82;;;;;;;;;;5037919;28;20067;-79
2024/01/28 08:58:35;;;;;;;12.73;8.02;;;;;;;;;;5036631;28;20099;-78
2024/01/28 09:01:02;;;;;;;11.52;7.47;;;;;;;;;;5056315;28;20128;-80
2024/01/28 09:03:29;;;;;;;14.18;8.15;;;;;;;;;;5056721;28;20422;-81
2024/01/28 09:06:00;;;;;;;13.13;7.50;;;;;;;;;;5038021;28;20060;-78
2024/01/28 09:08:33;;;;;;;15.60;9.07;;;;;;;;;;5049434;28;20049;-78
2024/01/28 09:11:02;;;;;;;16.23;8.18;;;;;;;;;;5038783;28;20083;-79
2024/01/28 09:13:33;;;;;;;15.40;9.10;;;;;;;;;;5051720;28;20124;-79
2024/01/28 09:16:05;;;;;;;12.60;8.38;;;;;;;;;;5050711;28;20076;-79
2024/01/28 09:18:38;;;;;;;13.90;8.65;;;;;;;;;;5052787;28;20064;-79
2024/01/28 09:21:09;;;;;;;16.85;9.02;;;;;;;;;;5054149;28;20053;-78
2024/01/28 09:23:37;;;;;;;14.60;8.38;;;;;;;;;;5042279;28;20047;-81
2024/01/28 09:26:09;;;;;;;16.02;9.05;;;;;;;;;;5057153;28;20072;-79
2024/01/28 09:28:39;;;;;;;13.23;8.93;;;;;;;;;;5038045;28;20052;-79
2024/01/28 09:31:08;;;;;;;13.38;8.38;;;;;;;;;;5039361;28;20109;-79
2024/01/28 09:33:37;;;;;;;14.95;8.68;;;;;;;;;;5051366;28;20414;-78
2024/01/28 09:36:07;;;;;;;14.20;8.32;;;;;;;;;;5037587;28;20056;-78
2024/01/28 09:38:36;;;;;;;13.05;7.70;;;;;;;;;;5035360;28;20036;-79
2024/01/28 09:41:16;;;;;;;12.68;7.93;;;;;;;;;;5054542;28;20045;-79
2024/01/28 09:43:45;;;;;;;11.50;7.38;;;;;;;;;;5050893;28;20580;-78
2024/01/28 09:46:14;;;;;;;11.75;8.05;;;;;;;;;;5037667;28;20041;-78
2024/01/28 09:48:49;;;;;;;9.40;7.60;;;;;;;;;;5055120;28;20132;-79
2024/01/28 09:51:20;;;;;;;10.57;7.25;;;;;;;;;;5039174;28;20055;-79
2024/01/28 09:53:52;;;;;;;12.40;7.05;;;;;;;;;;5039325;28;20064;-79
2024/01/28 09:56:30;;;;;;;14.77;7.82;;;;;;;;;;5040858;28;20067;-79
2024/01/28 09:59:02;;;;;;;15.73;8.20;;;;;;;;;;5039482;28;20045;-79
2024/01/28 10:01:31;;;;;;;12.02;7.90;;;;;;;;;;5039244;28;20057;-79
2024/01/28 10:04:01;;;;;;;11.07;7.07;;;;;;;;;;5054640;28;20111;-79
2024/01/28 10:06:30;;;;;;;10.88;6.53;;;;;;;;;;5036915;28;20457;-79
2024/01/28 10:08:59;;;;;;;11.63;7.30;;;;;;;;;;5029097;28;20049;-79
2024/01/28 10:11:33;;;;;;;11.27;7.35;;;;;;;;;;5053013;28;20556;-79
2024/01/28 10:14:02;;;;;;;11.85;6.82;;;;;;;;;;5053547;28;20084;-79
2024/01/28 10:16:32;;;;;;;13.73;7.20;;;;;;;;;;5038815;28;20075;-79
2024/01/28 10:19:03;;;;;;;8.80;6.20;;;;;;;;;;5051898;28;20081;-79
2024/01/28 10:21:33;;;;;;;10.05;6.43;;;;;;;;;;5034205;28;20303;-79
2024/01/28 10:24:02;;;;;;;11.35;6.22;;;;;;;;;;5040836;28;20120;-79
2024/01/28 10:26:31;;;;;;;9.32;6.45;;;;;;;;;;5037788;28;20102;-80
2024/01/28 10:29:07;;;;;;;9.55;6.15;;;;;;;;;;5038304;28;20049;-79
2024/01/28 10:31:36;;;;;;;7.68;5.57;;;;;;;;;;5036076;28;20045;-79
2024/01/28 10:34:05;;;;;;;9.00;5.63;;;;;;;;;;5032721;28;20080;-79
2024/01/28 10:36:39;;;;;;;8.45;5.57;;;;;;;;;;5052400;28;20045;-79
2024/01/28 10:39:11;;;;;;;9.25;5.65;;;;;;;;;;5041862;28;20060;-79
2024/01/28 10:41:47;;;;;;;10.35;6.53;;;;;;;;;;5042886;28;20052;-79
2024/01/28 10:44:16;;;;;;;7.93;5.40;;;;;;;;;;5035828;28;20057;-79
2024/01/28 10:46:44;;;;;;;9.70;5.93;;;;;;;;;;5051764;28;20049;-78
2024/01/28 10:49:13;;;;;;;13.27;6.55;;;;;;;;;;5027691;28;20041;-79
2024/01/28 10:51:40;;;;;;;9.10;6.22;;;;;;;;;;5033467;28;20048;-79
2024/01/28 10:54:07;;;;;;;7.82;5.63;;;;;;;;;;5041931;28;20045;-79
2024/01/28 10:56:38;;;;;;;9.73;5.30;;;;;;;;;;5030114;28;20518;-79
2024/01/28 10:59:05;;;;;;;8.05;5.32;;;;;;;;;;5068763;28;20049;-80
2024/01/28 11:01:32;;;;;;;10.18;5.90;;;;;;;;;;5034198;28;20123;-79
2024/01/28 11:03:59;;;;;;;7.07;4.93;;;;;;;;;;5038892;28;20136;-79
2024/01/28 11:06:27;;;;;;;7.90;5.00;;;;;;;;;;5054499;28;20056;-79
2024/01/28 11:08:55;;;;;;;7.30;4.78;;;;;;;;;;5036487;28;20049;-79
2024/01/28 11:11:22;;;;;;;8.13;5.25;;;;;;;;;;5054082;28;20569;-78
2024/01/28 11:13:48;;;;;;;9.15;4.85;;;;;;;;;;5039439;28;20053;-80
2024/01/28 11:16:15;;;;;;;8.38;4.63;;;;;;;;;;5061033;28;20056;-80
2024/01/28 11:18:54;;;;;;;5.55;4.70;;;;;;;;;;5042450;28;20049;-79
2024/01/28 11:21:21;;;;;;;8.10;5.43;;;;;;;;;;5069350;28;20051;-81
2024/01/28 11:23:48;;;;;;;9.23;5.53;;;;;;;;;;5048471;28;20057;-80
2024/01/28 11:26:15;;;;;;;7.18;5.18;;;;;;;;;;5050008;28;20026;-81
2024/01/28 11:28:46;;;;;;;7.45;4.85;;;;;;;;;;5050124;28;20049;-80
2024/01/28 11:31:19;;;;;;;5.78;4.70;;;;;;;;;;5058583;28;20041;-81
2024/01/28 11:33:46;;;;;;;6.88;5.00;;;;;;;;;;5058625;28;20083;-81
2024/01/28 11:36:13;;;;;;;7.15;4.60;;;;;;;;;;5038523;28;20060;-81
2024/01/28 11:38:40;;;;;;;7.03;4.05;;;;;;;;;;5036630;28;20094;-81
2024/01/28 11:41:10;;;;;;;7.35;4.90;;;;;;;;;;5063157;28;20060;-76
2024/01/28 11:43:37;;;;;;;6.32;4.50;;;;;;;;;;5044390;28;20048;-76
2024/01/28 11:46:04;;;;;;;5.25;4.40;;;;;;;;;;5035505;28;20049;-75
2024/01/28 11:48:30;;;;;;;10.35;4.90;;;;;;;;;;5053334;28;20080;-76
2024/01/28 11:50:57;;;;;;;5.57;3.42;;;;;;;;;;5044288;28;20052;-76
2024/01/28 11:53:24;;;;;;;6.22;4.13;;;;;;;;;;5053903;28;20045;-75
2024/01/28 11:55:51;;;;;;;6.07;3.63;;;;;;;;;;5055554;28;20056;-79
2024/01/28 11:58:19;;;;;;;4.03;3.58;;;;;;;;;;5053947;28;20049;-79
2024/01/28 12:00:46;;;;;;;4.40;3.42;;;;;;;;;;5040883;28;20325;-79
2024/01/28 12:03:12;;;;;;;5.28;3.08;;;;;;;;;;5039884;28;20056;-79
2024/01/28 12:05:39;;;;;;;4.68;3.30;;;;;;;;;;5057966;28;20052;-79
2024/01/28 12:08:05;;;;;;;5.38;3.40;;;;;;;;;;5037383;28;20064;-79
2024/01/28 12:10:34;;;;;;;4.82;2.97;;;;;;;;;;5051539;28;20475;-79
2024/01/28 12:13:01;;;;;;;3.92;2.83;;;;;;;;;;5039608;28;20071;-79
2024/01/28 12:15:28;;;;;;;6.40;3.03;;;;;;;;;;5051009;28;20457;-83
2024/01/28 12:17:56;;;;;;;5.97;2.92;;;;;;;;;;5047956;28;20053;-82
2024/01/28 12:20:23;;;;;;;4.60;2.80;;;;;;;;;;5054137;28;20076;-80
2024/01/28 12:22:50;;;;;;;3.63;2.85;;;;;;;;;;5050708;28;20080;-81
2024/01/28 12:25:24;;;;;;;4.35;2.83;;;;;;;;;;5038703;28;20072;-81
2024/01/28 12:27:51;;;;;;;4.38;2.70;;;;;;;;;;5039441;28;20109;-81
2024/01/28 12:30:18;;;;;;;4.07;2.90;;;;;;;;;;5055702;28;20049;-81
2024/01/28 12:32:45;;;;;;;3.17;2.88;;;;;;;;;;5039755;28;20052;-81
2024/01/28 12:35:12;;;;;;;3.53;2.80;;;;;;;;;;5038232;28;20057;-81
2024/01/28 12:37:39;;;;;;;3.53;2.38;;;;;;;;;;5056247;28;20099;-80
2024/01/28 12:40:06;;;;;;;4.63;3.13;;;;;;;;;;5053809;28;20132;-81
2024/01/28 12:42:38;;;;;;;8.48;2.65;;;;;;;;;;5056099;28;20541;-81
2024/01/28 12:45:05;;;;;;;3.42;2.50;;;;;;;;;;5039483;28;20048;-82
2024/01/28 12:47:32;;;;;;;4.57;2.72;;;;;;;;;;5054057;28;20068;-81
2024/01/28 12:49:58;;;;;;;3.63;2.55;;;;;;;;;;5054915;28;20049;-81
2024/01/28 12:52:25;;;;;;;4.30;2.85;;;;;;;;;;5055291;28;20144;-81
2024/01/28 12:54:52;;;;;;;3.95;2.90;;;;;;;;;;5038777;28;20110;-81
2024/01/28 12:57:18;;;;;;;3.67;2.58;;;;;;;;;;5055775;28;20063;-81
2024/01/28 12:59:45;;;;;;;4.32;2.28;;;;;;;;;;5039113;28;20593;-81
2024/01/28 13:02:12;;;;;;;3.97;2.72;;;;;;;;;;5056857;28;20102;-81
2024/01/28 13:04:39;;;;;;;3.90;2.55;;;;;;;;;;5056113;28;20053;-81
2024/01/28 13:07:06;;;;;;;5.13;2.83;;;;;;;;;;5050324;28;20107;-81
2024/01/28 13:09:33;;;;;;;2.50;2.30;;;;;;;;;;5056013;28;20053;-81
2024/01/28 13:12:00;;;;;;;3.95;2.83;;;;;;;;;;5040024;28;20131;-80
2024/01/28 13:14:27;;;;;;;4.75;3.05;;;;;;;;;;5039216;28;20048;-81
2024/01/28 13:16:54;;;;;;;3.70;3.00;;;;;;;;;;5054679;28;20057;-81
2024/01/28 13:19:20;;;;;;;4.30;2.95;;;;;;;;;;5040716;28;20049;-81
2024/01/28 13:21:48;;;;;;;4.55;3.45;;;;;;;;;;5055878;28;20053;-81
2024/01/28 13:24:15;;;;;;;8.00;4.10;;;;;;;;;;5038877;28;20079;-81
2024/01/28 13:26:42;;;;;;;7.68;4.10;;;;;;;;;;5054781;28;20064;-81
2024/01/28 13:29:10;;;;;;;5.35;3.67;;;;;;;;;;5055268;28;20079;-81
2024/01/28 13:31:37;;;;;;;6.13;3.63;;;;;;;;;;5038982;28;20461;-81
2024/01/28 13:34:03;;;;;;;5.95;3.58;;;;;;;;;;5055343;28;20053;-81
2024/01/28 13:36:30;;;;;;;5.88;3.85;;;;;;;;;;5052032;28;20056;-80
2024/01/28 13:38:57;;;;;;;5.90;4.18;;;;;;;;;;5044183;28;20056;-81
2024/01/28 13:41:24;;;;;;;6.30;4.45;;;;;;;;;;5048916;28;20084;-78
2024/01/28 13:43:50;;;;;;;4.65;3.97;;;;;;;;;;5049033;28;20061;-79
2024/01/28 13:46:17;;;;;;;6.43;4.03;;;;;;;;;;5048564;28;20530;-80
2024/01/28 13:48:44;;;;;;;8.27;4.28;;;;;;;;;;5056562;28;20082;-80
2024/01/28 13:51:11;;;;;;;3.63;3.10;;;;;;;;;;5053923;28;20045;-79
2024/01/28 13:53:37;;;;;;;4.10;3.70;;;;;;;;;;5053042;28;20182;-79
2024/01/28 13:56:06;;;;;;;4.38;3.28;;;;;;;;;;5054358;28;20048;-79
2024/01/28 13:58:33;;;;;;;5.30;3.65;;;;;;;;;;5038367;28;20582;-79
2024/01/28 14:00:59;;;;;;;4.40;3.33;;;;;;;;;;5053250;28;20045;-79
2024/01/28 14:03:26;;;;;;;3.72;3.03;;;;;;;;;;5053647;28;20511;-79
2024/01/28 14:05:53;;;;;;;5.80;3.20;;;;;;;;;;5038381;28;20116;-79
2024/01/28 14:08:21;;;;;;;5.05;3.42;;;;;;;;;;5035829;28;20041;-79
2024/01/28 14:10:48;;;;;;;6.80;4.07;;;;;;;;;;5053626;28;20060;-79
2024/01/28 14:13:14;;;;;;;5.85;3.40;;;;;;;;;;5054835;28;20040;-79
2024/01/28 14:15:41;;;;;;;4.97;3.25;;;;;;;;;;5053855;28;20068;-78
2024/01/28 14:18:08;;;;;;;5.63;3.20;;;;;;;;;;5054940;28;20211;-79
2024/01/28 14:20:35;;;;;;;4.43;3.15;;;;;;;;;;5034559;28;20052;-79
2024/01/28 14:23:02;;;;;;;4.13;2.60;;;;;;;;;;5034443;28;20049;-79
2024/01/28 14:25:29;;;;;;;4.43;2.90;;;;;;;;;;5054351;28;20073;-79
2024/01/28 14:27:55;;;;;;;3.17;2.38;;;;;;;;;;5034625;28;20075;-79
2024/01/28 14:30:22;;;;;;;4.25;2.88;;;;;;;;;;5053299;28;20087;-79
2024/01/28 14:32:49;;;;;;;3.38;2.75;;;;;;;;;;5039404;28;20064;-79
2024/01/28 14:35:16;;;;;;;5.68;3.03;;;;;;;;;;5054045;28;20063;-78
2024/01/28 14:37:43;;;;;;;4.43;3.28;;;;;;;;;;5053486;28;20088;-78